Delta Buck — WDF8798 — position and weather

sailwx.info

Track history (hours):
 
Tides and Currents Weather Stations Pressure Air Temp Water Temp Dewpoint Dewpoint Depression Visibility Wind Speed Wind Dir Waves Ship Positions

Delta Buck

Owner: Crosby Marine Transportation, Golden Meadow, LA. More information available from US FCC via Universal Licensing System and Coast Guard Vessel Documentation Center.

Last reported at 2018-Jan-07 13:22 UTC. Time now 2018-Jan-20 01:21 UTC.
Position N 29°34' W 090°29'.
Warning: this ship's position is 12 days out of date.

Length 20 m.

Type: Towing. MMSI: 367498680.

Date/timePositionNaut miles runAvg speedWind from/ knotsBaromVisibWave heightAir tempDewpointWater temp
2018-Jan-07 13:22N 29°34' W 090°29'3 7.8
2018-Jan-07 13:00N 29°34' W 090°33'4 7.4
2018-Jan-07 12:30N 29°35' W 090°37'3 6.9
2018-Jan-07 12:00N 29°36' W 090°40'0 0.1
2018-Jan-07 11:29N 29°36' W 090°40'0 0.0
2018-Jan-07 10:59N 29°36' W 090°40'0 0.0
2018-Jan-07 10:23N 29°36' W 090°40'0 0.0
2018-Jan-07 09:59N 29°36' W 090°40'0 0.0
2018-Jan-07 09:29N 29°36' W 090°40'0 0.0
2018-Jan-07 08:59N 29°36' W 090°40'0 0.0
2018-Jan-07 08:29N 29°36' W 090°40'0 0.0
2018-Jan-07 07:59N 29°36' W 090°40'0 0.0
2018-Jan-07 07:29N 29°36' W 090°40'0 0.0
2018-Jan-07 06:59N 29°36' W 090°40'0 0.0
2018-Jan-07 06:29N 29°36' W 090°40'0 0.0
2018-Jan-07 05:59N 29°36' W 090°40'0 0.0
2018-Jan-07 05:29N 29°36' W 090°40'0 0.0
2018-Jan-07 04:59N 29°36' W 090°40'0 0.0
2018-Jan-07 04:29N 29°36' W 090°40'0 0.0
2018-Jan-07 03:59N 29°36' W 090°40'0 0.0
2018-Jan-07 03:29N 29°36' W 090°40'0 0.0
2018-Jan-07 02:59N 29°36' W 090°40'0 0.0
2018-Jan-07 02:29N 29°36' W 090°40'0 0.0
2018-Jan-07 01:59N 29°36' W 090°40'0 0.0
2018-Jan-07 01:29N 29°36' W 090°40'0 0.0
2018-Jan-07 00:29N 29°36' W 090°40'0 0.0
2018-Jan-06 23:59N 29°36' W 090°40'0 0.0
2018-Jan-06 23:26N 29°36' W 090°40'0 0.0
2018-Jan-06 22:59N 29°36' W 090°40'0 0.0
2018-Jan-06 22:29N 29°36' W 090°40'0 0.0
2018-Jan-06 21:59N 29°36' W 090°40'0 0.0
2018-Jan-06 21:29N 29°36' W 090°40'0 0.0
2018-Jan-06 20:52N 29°36' W 090°40'2 5.4
2018-Jan-06 20:31N 29°36' W 090°43'3 5.7
2018-Jan-06 20:01N 29°34' W 090°43'1 1.9
2018-Jan-06 19:31N 29°33' W 090°42'0 0.0
2018-Jan-06 19:00N 29°33' W 090°42'0 0.0
2018-Jan-06 18:30N 29°33' W 090°42'0 0.0
2018-Jan-06 18:00N 29°33' W 090°42'0 0.0
2018-Jan-06 17:30N 29°33' W 090°42'0 0.0
2018-Jan-06 17:01N 29°33' W 090°42'0 0.0
2018-Jan-06 16:31N 29°33' W 090°42'0 0.0
2018-Jan-06 16:00N 29°33' W 090°42'0 0.6
2018-Jan-06 15:30N 29°33' W 090°42'3 6.6
2018-Jan-06 15:01N 29°36' W 090°43'2 4.5
2018-Jan-06 14:30N 29°36' W 090°40'4 7.2
2018-Jan-06 14:00N 29°35' W 090°36'1 0.0
2018-Jan-05 01:40N 29°35' W 090°36'1 4.6
2018-Jan-05 01:30N 29°35' W 090°36'4 7.2
2018-Jan-05 01:00N 29°36' W 090°40'2 4.4
2018-Jan-05 00:30N 29°36' W 090°43'3 5.8
2018-Jan-05 00:00N 29°33' W 090°42'4 7.3
2018-Jan-04 23:30N 29°29' W 090°43'4 8.2
2018-Jan-04 23:00N 29°25' W 090°43'1 0.1
2018-Jan-04 14:54N 29°25' W 090°44'2 5.5
2018-Jan-04 14:27N 29°27' W 090°43'2 5.5
2018-Jan-04 14:00N 29°29' W 090°43'3 5.3
2018-Jan-04 13:30N 29°32' W 090°42'2 3.0
2018-Jan-04 13:00N 29°34' W 090°42'0 0.0
2018-Jan-04 12:30N 29°34' W 090°42'0 0.0
2018-Jan-04 12:00N 29°34' W 090°42'1 1.7
2018-Jan-04 11:28N 29°33' W 090°42'0 0.0
2018-Jan-04 10:58N 29°33' W 090°42'0 0.0
2018-Jan-04 10:28N 29°33' W 090°42'0 0.0
2018-Jan-04 09:58N 29°33' W 090°42'0 0.0
2018-Jan-04 09:28N 29°33' W 090°42'0 0.0
2018-Jan-04 08:58N 29°33' W 090°42'0 0.0
2018-Jan-04 08:28N 29°33' W 090°42'0 0.0
2018-Jan-04 07:58N 29°33' W 090°42'0 0.0
2018-Jan-04 07:28N 29°33' W 090°42'0 0.0
2018-Jan-04 06:58N 29°33' W 090°42'0 0.0
2018-Jan-04 06:28N 29°33' W 090°42'0 0.0
2018-Jan-04 05:58N 29°33' W 090°42'0 0.0
2018-Jan-04 05:25N 29°33' W 090°42'0 0.0
2018-Jan-04 04:58N 29°33' W 090°42'0 0.0
2018-Jan-04 04:28N 29°33' W 090°42'0 0.0
2018-Jan-04 03:58N 29°33' W 090°42'0 0.0
2018-Jan-04 03:28N 29°33' W 090°42'0 0.0
2018-Jan-04 02:58N 29°33' W 090°42'0 0.0
2018-Jan-04 02:28N 29°33' W 090°42'0 0.0
2018-Jan-04 01:58N 29°33' W 090°42'0 0.0
2018-Jan-04 01:28N 29°33' W 090°42'0 0.0
2018-Jan-04 00:58N 29°33' W 090°42'0 0.0
2018-Jan-04 00:28N 29°33' W 090°42'0 0.0
2018-Jan-03 23:58N 29°33' W 090°42'0 0.0
2018-Jan-03 23:28N 29°33' W 090°42'0 0.0
2018-Jan-03 22:58N 29°33' W 090°42'0 0.0
2018-Jan-03 22:28N 29°33' W 090°42'0 0.0
2018-Jan-03 21:58N 29°33' W 090°42'0 0.0
2018-Jan-03 21:28N 29°33' W 090°42'0 0.0
2018-Jan-03 20:58N 29°33' W 090°42'0 0.0
2018-Jan-03 20:28N 29°33' W 090°42'1 1.9
2018-Jan-03 20:00N 29°34' W 090°42'0 0.4
2018-Jan-03 19:30N 29°34' W 090°42'0 0.0
2018-Jan-03 19:00N 29°34' W 090°42'0 0.1
2018-Jan-03 18:30N 29°34' W 090°42'0 0.1
2018-Jan-03 18:00N 29°34' W 090°42'1 1.9
2018-Jan-03 17:30N 29°33' W 090°42'0 0.4
2018-Jan-03 17:00N 29°33' W 090°42'0 0.0
2018-Jan-03 16:30N 29°33' W 090°42'0 0.0
2018-Jan-03 16:00N 29°33' W 090°42'0 0.0
2018-Jan-03 15:30N 29°33' W 090°42'1 2.4
2018-Jan-03 15:00N 29°34' W 090°43'2 4.6
2018-Jan-03 14:30N 29°36' W 090°43'2 4.9
2018-Jan-03 14:00N 29°36' W 090°40'3 6.6
2018-Jan-03 13:30N 29°35' W 090°36'1 0.0
2018-Jan-02 19:50N 29°35' W 090°36'1 4.4
2018-Jan-02 19:30N 29°35' W 090°37'3 5.6
2018-Jan-02 19:00N 29°36' W 090°40'0 0.0
2018-Jan-02 18:30N 29°36' W 090°40'0 0.0
2018-Jan-02 18:00N 29°36' W 090°40'1 1.6
2018-Jan-02 17:30N 29°36' W 090°41'2 4.6
2018-Jan-02 17:00N 29°35' W 090°43'4 7.2
2018-Jan-02 16:30N 29°32' W 090°46'1 0.1
2018-Jan-01 23:36N 29°32' W 090°47'1 7.8
2018-Jan-01 23:27N 29°32' W 090°46'3 6.9
2018-Jan-01 23:00N 29°34' W 090°43'3 5.7
2018-Jan-01 22:30N 29°37' W 090°42'3 6.9
2018-Jan-01 22:00N 29°35' W 090°38'  
2017-Dec-29 18:57N 29°35' W 090°36'2 4.1
2017-Dec-29 18:30N 29°35' W 090°38'2 4.7
2017-Dec-29 18:00N 29°36' W 090°40'0 0.0
2017-Dec-29 17:30N 29°36' W 090°40'2 3.9
2017-Dec-29 17:00N 29°37' W 090°42'3 5.8
2017-Dec-29 16:30N 29°34' W 090°43'1 1.4
2017-Dec-29 16:00N 29°34' W 090°42'0 0.2
2017-Dec-29 15:30N 29°34' W 090°42'1 1.1
2017-Dec-29 15:00N 29°33' W 090°42'2 3.2
2017-Dec-29 14:30N 29°35' W 090°43'1 2.4
2017-Dec-29 14:00N 29°36' W 090°43'1 2.4
2017-Dec-29 13:30N 29°37' W 090°41'0 0.1
2017-Dec-29 13:00N 29°37' W 090°41'1 1.9
2017-Dec-29 12:30N 29°36' W 090°40'3 5.6
2017-Dec-29 12:00N 29°35' W 090°38'2 0.1
2017-Dec-28 19:02N 29°35' W 090°36'0 0.8
2017-Dec-28 19:00N 29°35' W 090°36'3 5.2
2017-Dec-28 18:30N 29°36' W 090°39'1 2.8
2017-Dec-28 18:00N 29°36' W 090°40'0 0.0
2017-Dec-28 17:30N 29°36' W 090°40'0 0.0
2017-Dec-28 17:00N 29°36' W 090°40'0 0.0
2017-Dec-28 16:30N 29°36' W 090°40'0 0.0
2017-Dec-28 16:00N 29°36' W 090°40'0 0.0
2017-Dec-28 15:30N 29°36' W 090°40'0 0.0
2017-Dec-28 15:00N 29°36' W 090°40'0 0.0
2017-Dec-28 14:30N 29°36' W 090°40'0 0.0
2017-Dec-28 14:00N 29°36' W 090°40'0 0.0
2017-Dec-28 13:30N 29°36' W 090°40'  
Track history (hours):
 
Tides and Currents Weather Stations Pressure Air Temp Water Temp Dewpoint Dewpoint Depression Visibility Wind Speed Wind Dir Waves Ship Positions

Delta Buck

Owner: Crosby Marine Transportation, Golden Meadow, LA. More information available from US FCC via Universal Licensing System and Coast Guard Vessel Documentation Center.

Last reported at 2018-Jan-07 13:22 UTC. Time now 2018-Jan-20 01:21 UTC.
Position N 29°34' W 090°29'.
Warning: this ship's position is 12 days out of date.

Length 20 m.

Type: Towing. MMSI: 367498680.

Date/timePositionNaut miles runAvg speedWind from/ knotsBaromVisibWave heightAir tempDewpointWater temp
2018-Jan-07 13:22N 29°34' W 090°29'3 7.8
2018-Jan-07 13:00N 29°34' W 090°33'4 7.4
2018-Jan-07 12:30N 29°35' W 090°37'3 6.9
2018-Jan-07 12:00N 29°36' W 090°40'0 0.1
2018-Jan-07 11:29N 29°36' W 090°40'0 0.0
2018-Jan-07 10:59N 29°36' W 090°40'0 0.0
2018-Jan-07 10:23N 29°36' W 090°40'0 0.0
2018-Jan-07 09:59N 29°36' W 090°40'0 0.0
2018-Jan-07 09:29N 29°36' W 090°40'0 0.0
2018-Jan-07 08:59N 29°36' W 090°40'0 0.0
2018-Jan-07 08:29N 29°36' W 090°40'0 0.0
2018-Jan-07 07:59N 29°36' W 090°40'0 0.0
2018-Jan-07 07:29N 29°36' W 090°40'0 0.0
2018-Jan-07 06:59N 29°36' W 090°40'0 0.0
2018-Jan-07 06:29N 29°36' W 090°40'0 0.0
2018-Jan-07 05:59N 29°36' W 090°40'0 0.0
2018-Jan-07 05:29N 29°36' W 090°40'0 0.0
2018-Jan-07 04:59N 29°36' W 090°40'0 0.0
2018-Jan-07 04:29N 29°36' W 090°40'0 0.0
2018-Jan-07 03:59N 29°36' W 090°40'0 0.0
2018-Jan-07 03:29N 29°36' W 090°40'0 0.0
2018-Jan-07 02:59N 29°36' W 090°40'0 0.0
2018-Jan-07 02:29N 29°36' W 090°40'0 0.0
2018-Jan-07 01:59N 29°36' W 090°40'0 0.0
2018-Jan-07 01:29N 29°36' W 090°40'0 0.0
2018-Jan-07 00:29N 29°36' W 090°40'0 0.0
2018-Jan-06 23:59N 29°36' W 090°40'0 0.0
2018-Jan-06 23:26N 29°36' W 090°40'0 0.0
2018-Jan-06 22:59N 29°36' W 090°40'0 0.0
2018-Jan-06 22:29N 29°36' W 090°40'0 0.0
2018-Jan-06 21:59N 29°36' W 090°40'0 0.0
2018-Jan-06 21:29N 29°36' W 090°40'0 0.0
2018-Jan-06 20:52N 29°36' W 090°40'2 5.4
2018-Jan-06 20:31N 29°36' W 090°43'3 5.7
2018-Jan-06 20:01N 29°34' W 090°43'1 1.9
2018-Jan-06 19:31N 29°33' W 090°42'0 0.0
2018-Jan-06 19:00N 29°33' W 090°42'0 0.0
2018-Jan-06 18:30N 29°33' W 090°42'0 0.0
2018-Jan-06 18:00N 29°33' W 090°42'0 0.0
2018-Jan-06 17:30N 29°33' W 090°42'0 0.0
2018-Jan-06 17:01N 29°33' W 090°42'0 0.0
2018-Jan-06 16:31N 29°33' W 090°42'0 0.0
2018-Jan-06 16:00N 29°33' W 090°42'0 0.6
2018-Jan-06 15:30N 29°33' W 090°42'3 6.6
2018-Jan-06 15:01N 29°36' W 090°43'2 4.5
2018-Jan-06 14:30N 29°36' W 090°40'4 7.2
2018-Jan-06 14:00N 29°35' W 090°36'1 0.0
2018-Jan-05 01:40N 29°35' W 090°36'1 4.6
2018-Jan-05 01:30N 29°35' W 090°36'4 7.2
2018-Jan-05 01:00N 29°36' W 090°40'2 4.4
2018-Jan-05 00:30N 29°36' W 090°43'3 5.8
2018-Jan-05 00:00N 29°33' W 090°42'4 7.3
2018-Jan-04 23:30N 29°29' W 090°43'4 8.2
2018-Jan-04 23:00N 29°25' W 090°43'1 0.1
2018-Jan-04 14:54N 29°25' W 090°44'2 5.5
2018-Jan-04 14:27N 29°27' W 090°43'2 5.5
2018-Jan-04 14:00N 29°29' W 090°43'3 5.3
2018-Jan-04 13:30N 29°32' W 090°42'2 3.0
2018-Jan-04 13:00N 29°34' W 090°42'0 0.0
2018-Jan-04 12:30N 29°34' W 090°42'0 0.0
2018-Jan-04 12:00N 29°34' W 090°42'1 1.7
2018-Jan-04 11:28N 29°33' W 090°42'0 0.0
2018-Jan-04 10:58N 29°33' W 090°42'0 0.0
2018-Jan-04 10:28N 29°33' W 090°42'0 0.0
2018-Jan-04 09:58N 29°33' W 090°42'0 0.0
2018-Jan-04 09:28N 29°33' W 090°42'0 0.0
2018-Jan-04 08:58N 29°33' W 090°42'0 0.0
2018-Jan-04 08:28N 29°33' W 090°42'0 0.0
2018-Jan-04 07:58N 29°33' W 090°42'0 0.0
2018-Jan-04 07:28N 29°33' W 090°42'0 0.0
2018-Jan-04 06:58N 29°33' W 090°42'0 0.0
2018-Jan-04 06:28N 29°33' W 090°42'0 0.0
2018-Jan-04 05:58N 29°33' W 090°42'0 0.0
2018-Jan-04 05:25N 29°33' W 090°42'0 0.0
2018-Jan-04 04:58N 29°33' W 090°42'0 0.0
2018-Jan-04 04:28N 29°33' W 090°42'0 0.0
2018-Jan-04 03:58N 29°33' W 090°42'0 0.0
2018-Jan-04 03:28N 29°33' W 090°42'0 0.0
2018-Jan-04 02:58N 29°33' W 090°42'0 0.0
2018-Jan-04 02:28N 29°33' W 090°42'0 0.0
2018-Jan-04 01:58N 29°33' W 090°42'0 0.0
2018-Jan-04 01:28N 29°33' W 090°42'0 0.0
2018-Jan-04 00:58N 29°33' W 090°42'0 0.0
2018-Jan-04 00:28N 29°33' W 090°42'0 0.0
2018-Jan-03 23:58N 29°33' W 090°42'0 0.0
2018-Jan-03 23:28N 29°33' W 090°42'0 0.0
2018-Jan-03 22:58N 29°33' W 090°42'0 0.0
2018-Jan-03 22:28N 29°33' W 090°42'0 0.0
2018-Jan-03 21:58N 29°33' W 090°42'0 0.0
2018-Jan-03 21:28N 29°33' W 090°42'0 0.0
2018-Jan-03 20:58N 29°33' W 090°42'0 0.0
2018-Jan-03 20:28N 29°33' W 090°42'1 1.9
2018-Jan-03 20:00N 29°34' W 090°42'0 0.4
2018-Jan-03 19:30N 29°34' W 090°42'0 0.0
2018-Jan-03 19:00N 29°34' W 090°42'0 0.1
2018-Jan-03 18:30N 29°34' W 090°42'0 0.1
2018-Jan-03 18:00N 29°34' W 090°42'1 1.9
2018-Jan-03 17:30N 29°33' W 090°42'0 0.4
2018-Jan-03 17:00N 29°33' W 090°42'0 0.0
2018-Jan-03 16:30N 29°33' W 090°42'0 0.0
2018-Jan-03 16:00N 29°33' W 090°42'0 0.0
2018-Jan-03 15:30N 29°33' W 090°42'1 2.4
2018-Jan-03 15:00N 29°34' W 090°43'2 4.6
2018-Jan-03 14:30N 29°36' W 090°43'2 4.9
2018-Jan-03 14:00N 29°36' W 090°40'3 6.6
2018-Jan-03 13:30N 29°35' W 090°36'1 0.0
2018-Jan-02 19:50N 29°35' W 090°36'1 4.4
2018-Jan-02 19:30N 29°35' W 090°37'3 5.6
2018-Jan-02 19:00N 29°36' W 090°40'0 0.0
2018-Jan-02 18:30N 29°36' W 090°40'0 0.0
2018-Jan-02 18:00N 29°36' W 090°40'1 1.6
2018-Jan-02 17:30N 29°36' W 090°41'2 4.6
2018-Jan-02 17:00N 29°35' W 090°43'4 7.2
2018-Jan-02 16:30N 29°32' W 090°46'1 0.1
2018-Jan-01 23:36N 29°32' W 090°47'1 7.8
2018-Jan-01 23:27N 29°32' W 090°46'3 6.9
2018-Jan-01 23:00N 29°34' W 090°43'3 5.7
2018-Jan-01 22:30N 29°37' W 090°42'3 6.9
2018-Jan-01 22:00N 29°35' W 090°38'  
2017-Dec-29 18:57N 29°35' W 090°36'2 4.1
2017-Dec-29 18:30N 29°35' W 090°38'2 4.7
2017-Dec-29 18:00N 29°36' W 090°40'0 0.0
2017-Dec-29 17:30N 29°36' W 090°40'2 3.9
2017-Dec-29 17:00N 29°37' W 090°42'3 5.8
2017-Dec-29 16:30N 29°34' W 090°43'1 1.4
2017-Dec-29 16:00N 29°34' W 090°42'0 0.2
2017-Dec-29 15:30N 29°34' W 090°42'1 1.1
2017-Dec-29 15:00N 29°33' W 090°42'2 3.2
2017-Dec-29 14:30N 29°35' W 090°43'1 2.4
2017-Dec-29 14:00N 29°36' W 090°43'1 2.4
2017-Dec-29 13:30N 29°37' W 090°41'0 0.1
2017-Dec-29 13:00N 29°37' W 090°41'1 1.9
2017-Dec-29 12:30N 29°36' W 090°40'3 5.6
2017-Dec-29 12:00N 29°35' W 090°38'2 0.1
2017-Dec-28 19:02N 29°35' W 090°36'0 0.8
2017-Dec-28 19:00N 29°35' W 090°36'3 5.2
2017-Dec-28 18:30N 29°36' W 090°39'1 2.8
2017-Dec-28 18:00N 29°36' W 090°40'0 0.0
2017-Dec-28 17:30N 29°36' W 090°40'0 0.0
2017-Dec-28 17:00N 29°36' W 090°40'0 0.0
2017-Dec-28 16:30N 29°36' W 090°40'0 0.0
2017-Dec-28 16:00N 29°36' W 090°40'0 0.0
2017-Dec-28 15:30N 29°36' W 090°40'0 0.0
2017-Dec-28 15:00N 29°36' W 090°40'0 0.0
2017-Dec-28 14:30N 29°36' W 090°40'0 0.0
2017-Dec-28 14:00N 29°36' W 090°40'0 0.0
2017-Dec-28 13:30N 29°36' W 090°40'  

Dump ship's entire track history